Toksovo, Russia
Current Conditions -  °F | °C
As of 9:00 AM on Monday 26 Jan 2015 (Local Time) from ULLI Reporting Station
Light Fog Light Fog  
Wind Chill: 23°   Ceiling: Unl
Heat Index: 23°   Visibility: 0.15mi
Dew Point: 23°   Wind: 2mph
Humidity: 100%   Direction: 190°S
Pressure: 30.09"   Gusts: NA
Location:  60.15°N, 30.53°E
Report Text: ULLI 260600Z 19001MPS 0250 R28L/P2000N R28R/0250VP2000D PRFG BRNSC M05/M05 Q1019 28491034 78420342 NOSIG
Loading
Personal Weather Stations






























Interactive Weather Map New forecast layout! Learn more

10-Day Weather Forecast

Advertisements
Track Severe Weather on mobile